Time;durP1;ratioP1;P1;durP2;ratioP2;P2;SDS_P1;SDS_P2;PMS_P1;PMS_P2;Temp;Humidity;BMP_temperature;BMP_pressure;BME280_temperature;BME280_humidity;BME280_pressure;Samples;Min_cycle;Max_cycle;Signal;HPM_P1;HPM_P2
2024/01/01 00:05:10;;;;;;;62.60;35.08;;;;;;;4.67;72.86;99258.28;31349154;27;98147;-66
2024/01/01 00:20:11;;;;;;;56.80;34.30;;;;;;;5.02;72.61;99263.63;31348016;27;97099;-66
2024/01/01 00:35:11;;;;;;;42.25;26.60;;;;;;;5.08;72.06;99274.38;31347088;27;96703;-66
2024/01/01 00:50:12;;;;;;;47.58;29.35;;;;;;;5.11;72.34;99275.03;31343154;27;96821;-66
2024/01/01 01:05:12;;;;;;;41.88;25.27;;;;;;;5.12;72.77;99296.00;31342554;27;111409;-66
2024/01/01 01:20:12;;;;;;;31.70;19.27;;;;;;;5.12;73.23;99295.16;31340318;27;124657;-66
2024/01/01 01:35:12;;;;;;;23.48;14.32;;;;;;;5.20;73.61;99292.56;31339466;27;97095;-66
2024/01/01 01:50:14;;;;;;;14.77;7.50;;;;;;;5.52;73.42;99289.25;31337205;27;126825;-66
2024/01/01 02:05:15;;;;;;;29.47;16.33;;;;;;;5.64;73.21;99305.63;31337371;27;97233;-66
2024/01/01 02:20:15;;;;;;;18.05;9.25;;;;;;;5.82;73.08;99275.63;31336959;27;97172;-66
2024/01/01 02:35:15;;;;;;;17.75;9.23;;;;;;;5.93;72.97;99278.78;31335553;27;125255;-66
2024/01/01 02:50:18;;;;;;;15.30;9.55;;;;;;;5.88;72.71;99253.84;31333865;27;97350;-67
2024/01/01 03:05:22;;;;;;;13.77;7.73;;;;;;;5.82;72.43;99239.44;31332647;27;96631;-66
2024/01/01 03:20:25;;;;;;;10.83;7.00;;;;;;;5.51;72.61;99223.34;31346231;27;97185;-66
2024/01/01 03:35:25;;;;;;;19.00;9.03;;;;;;;5.14;73.42;99213.97;31351353;27;96590;-64
2024/01/01 03:50:26;;;;;;;14.40;7.93;;;;;;;4.95;73.84;99221.19;31348342;27;124673;-64
2024/01/01 04:05:26;;;;;;;12.93;7.50;;;;;;;4.99;74.10;99237.50;31346935;27;126761;-65
2024/01/01 04:20:26;;;;;;;13.57;6.03;;;;;;;4.93;74.45;99244.25;31346803;27;96634;-65
2024/01/01 04:35:27;;;;;;;16.55;7.70;;;;;;;4.88;74.56;99242.09;31345761;27;97059;-65
2024/01/01 04:50:27;;;;;;;15.20;7.28;;;;;;;4.87;74.94;99216.69;31343710;27;103280;-65
2024/01/01 05:05:27;;;;;;;12.27;7.68;;;;;;;4.98;74.71;99193.66;31342018;27;126813;-65
2024/01/01 05:20:27;;;;;;;15.60;6.60;;;;;;;5.10;74.74;99168.63;31339118;27;126607;-65
2024/01/01 05:35:28;;;;;;;8.95;5.22;;;;;;;5.14;74.49;99180.50;31337836;27;110801;-65
2024/01/01 05:50:30;;;;;;;11.80;5.85;;;;;;;5.19;74.29;99174.72;31337082;27;109849;-65
2024/01/01 06:05:33;;;;;;;8.93;5.83;;;;;;;5.12;74.46;99179.00;31335256;27;97756;-65
2024/01/01 06:20:33;;;;;;;10.93;6.90;;;;;;;5.05;73.83;99178.81;31336247;27;97802;-65
2024/01/01 06:35:33;;;;;;;10.52;6.20;;;;;;;5.06;74.43;99189.22;31332683;27;124279;-65
2024/01/01 06:50:34;;;;;;;10.80;6.63;;;;;;;4.99;74.13;99229.59;31339642;27;126759;-65
2024/01/01 07:05:34;;;;;;;14.52;8.20;;;;;;;4.94;74.40;99226.63;31352896;27;124190;-65
2024/01/01 07:20:34;;;;;;;12.75;6.47;;;;;;;4.97;74.76;99232.38;31353003;27;97202;-65
2024/01/01 07:35:35;;;;;;;15.00;7.25;;;;;;;4.90;74.39;99241.94;31349778;27;125620;-65
2024/01/01 07:50:36;;;;;;;16.40;7.32;;;;;;;4.77;74.35;99260.00;31342475;27;97536;-65
2024/01/01 08:05:36;;;;;;;11.07;6.47;;;;;;;4.70;74.60;99262.41;31340174;27;96610;-65
2024/01/01 08:20:37;;;;;;;16.75;9.13;;;;;;;4.87;74.64;99250.16;31338679;27;97110;-65
2024/01/01 08:35:37;;;;;;;14.30;7.95;;;;;;;5.19;74.48;99243.38;31336624;27;126816;-65
2024/01/01 08:50:37;;;;;;;13.93;7.05;;;;;;;5.53;74.63;99245.16;31299670;27;1139176;-65
2024/01/01 09:05:37;;;;;;;16.27;9.43;;;;;;;5.84;74.16;99244.56;31341154;27;98084;-65
2024/01/01 09:20:41;;;;;;;20.27;9.25;;;;;;;6.03;73.44;99239.00;31338793;27;111775;-65
2024/01/01 09:35:42;;;;;;;17.17;8.70;;;;;;;6.27;73.54;99229.41;31337350;27;97319;-65
2024/01/01 09:50:43;;;;;;;17.13;9.50;;;;;;;6.56;72.71;99236.84;31337180;27;97428;-65
2024/01/01 10:05:48;;;;;;;17.17;9.35;;;;;;;6.99;71.85;99225.97;31335986;27;97128;-65
2024/01/01 10:20:50;;;;;;;19.60;9.70;;;;;;;7.64;71.53;99237.28;31335512;27;96922;-66
2024/01/01 10:35:52;;;;;;;17.83;9.20;;;;;;;8.06;70.09;99238.66;31334561;27;96651;-65
2024/01/01 10:51:21;;;;;;;16.80;9.43;;;;;;;7.87;69.99;99233.81;31333052;27;97479;-65
2024/01/01 11:06:31;;;;;;;17.03;8.63;;;;;;;7.76;69.61;99221.78;31332019;27;96691;-65
2024/01/01 11:21:32;;;;;;;12.77;7.27;;;;;;;7.53;69.03;99213.81;31329659;27;96817;-65
2024/01/01 11:36:45;;;;;;;12.00;7.23;;;;;;;7.38;69.11;99205.78;31335038;27;97146;-66
2024/01/01 11:51:49;;;;;;;13.93;7.57;;;;;;;7.22;69.20;99198.75;31348907;27;97254;-66
2024/01/01 12:06:53;;;;;;;14.20;7.77;;;;;;;7.67;68.61;99194.53;31346543;27;96964;-66
2024/01/01 12:21:53;;;;;;;16.07;8.27;;;;;;;8.25;68.24;99202.03;31346426;27;96736;-66
2024/01/01 12:36:56;;;;;;;11.45;6.88;;;;;;;8.83;66.89;99196.19;31344851;27;105766;-67
2024/01/01 12:51:57;;;;;;;10.13;5.23;;;;;;;14.46;64.28;99193.94;31342590;27;96852;-66
2024/01/01 13:06:57;;;;;;;11.10;5.07;;;;;;;13.01;57.22;99206.91;31341868;27;96726;-65
2024/01/01 13:22:01;;;;;;;10.13;5.53;;;;;;;21.75;48.10;99213.00;31339922;27;97122;-65
2024/01/01 13:37:02;;;;;;;6.37;4.00;;;;;;;19.99;40.77;99220.34;31336532;27;97322;-65
2024/01/01 13:52:02;;;;;;;5.68;3.33;;;;;;;13.58;46.99;99226.91;31333935;27;125756;-65
2024/01/01 14:07:03;;;;;;;7.22;3.50;;;;;;;16.02;44.98;99235.69;31335136;27;97404;-65
2024/01/01 14:22:03;;;;;;;7.78;4.10;;;;;;;13.40;45.53;99247.13;31334876;27;96775;-66
2024/01/01 14:37:06;;;;;;;8.70;3.28;;;;;;;10.38;49.16;99234.13;31333350;27;96835;-65
2024/01/01 14:52:07;;;;;;;;;;;;;;;9.03;51.36;99252.25;31333435;27;96739;-64
2024/01/01 15:07:07;;;;;;;8.52;3.95;;;;;;;8.37;52.74;99266.13;31333829;27;97515;-65
2024/01/01 15:22:08;;;;;;;7.45;3.83;;;;;;;7.90;54.14;99278.53;31350308;27;126643;-65
2024/01/01 15:37:09;;;;;;;9.83;4.07;;;;;;;7.54;55.23;99282.53;31349533;27;97065;-66
2024/01/01 15:52:09;;;;;;;14.02;5.45;;;;;;;7.33;56.03;99300.88;31348922;27;96727;-66
2024/01/01 16:07:10;;;;;;;9.13;4.72;;;;;;;7.22;56.39;99310.00;31347993;27;96668;-65
2024/01/01 16:22:13;;;;;;;10.05;4.45;;;;;;;7.02;57.89;99323.63;31346119;27;126754;-66
2024/01/01 16:37:13;;;;;;;10.80;5.20;;;;;;;6.98;58.27;99346.13;31346480;27;97137;-66
2024/01/01 16:52:13;;;;;;;12.70;5.22;;;;;;;6.93;59.02;99359.88;31344324;27;96642;-65
2024/01/01 17:07:13;;;;;;;17.80;7.53;;;;;;;6.85;58.89;99341.34;31339698;27;122549;-66
2024/01/01 17:22:14;;;;;;;13.57;5.35;;;;;;;6.79;59.93;99347.31;31339611;27;124514;-66
2024/01/01 17:37:14;;;;;;;14.18;6.57;;;;;;;6.71;60.35;99355.25;31338156;27;97231;-66
2024/01/01 17:52:15;;;;;;;12.32;5.65;;;;;;;6.57;60.52;99362.03;31336083;27;97520;-65
2024/01/01 18:07:15;;;;;;;16.90;9.35;;;;;;;6.32;61.30;99379.72;31336896;27;97187;-66
2024/01/01 18:22:15;;;;;;;18.45;10.68;;;;;;;6.01;61.63;99373.16;31335240;27;125541;-66
2024/01/01 18:37:15;;;;;;;17.88;8.38;;;;;;;5.50;62.26;99388.97;31334218;27;100980;-65
2024/01/01 18:52:16;;;;;;;14.57;8.15;;;;;;;5.20;63.19;99395.56;31350090;27;97283;-65
2024/01/01 19:07:16;;;;;;;19.67;9.20;;;;;;;4.95;63.93;99395.38;31353298;27;97228;-65
2024/01/01 19:22:17;;;;;;;14.27;8.90;;;;;;;4.84;64.73;99393.81;31351327;27;125541;-64
2024/01/01 19:37:17;;;;;;;18.58;8.77;;;;;;;4.96;65.25;99399.69;31349912;27;126477;-65
2024/01/01 19:52:17;;;;;;;20.13;9.40;;;;;;;5.04;65.39;99401.53;31348784;27;97089;-64
2024/01/01 20:07:18;;;;;;;16.70;9.82;;;;;;;5.15;65.51;99400.47;31345990;27;128015;-65
2024/01/01 20:22:18;;;;;;;13.25;8.30;;;;;;;5.23;65.79;99409.25;31346231;27;125635;-66
2024/01/01 20:37:18;;;;;;;11.13;5.50;;;;;;;5.31;65.82;99421.69;31343579;27;126773;-65
2024/01/01 20:52:22;;;;;;;11.13;4.78;;;;;;;5.39;65.84;99427.03;31339892;27;127657;-65
2024/01/01 21:07:22;;;;;;;13.77;5.43;;;;;;;5.52;65.66;99431.06;31340607;27;97046;-65
2024/01/01 21:22:23;;;;;;;8.68;4.53;;;;;;;5.25;65.56;99435.53;31342535;27;125437;-64
2024/01/01 21:37:23;;;;;;;12.45;5.20;;;;;;;5.38;66.34;99443.84;31339075;27;125480;-65
2024/01/01 21:52:23;;;;;;;12.02;4.47;;;;;;;5.43;66.28;99441.59;31337976;27;107128;-64
2024/01/01 22:07:24;;;;;;;7.32;3.72;;;;;;;5.38;66.81;99438.56;31336292;27;125581;-65
2024/01/01 22:22:24;;;;;;;5.18;2.90;;;;;;;5.39;67.48;99444.69;31334394;27;97884;-67
2024/01/01 22:37:24;;;;;;;4.03;2.50;;;;;;;5.46;67.47;99437.00;31350970;27;97091;-66
2024/01/01 22:52:25;;;;;;;8.50;2.80;;;;;;;5.54;67.63;99447.59;31333939;27;126779;-66
2024/01/01 23:07:25;;;;;;;5.10;2.42;;;;;;;5.61;67.94;99453.09;31334250;27;96688;-66
2024/01/01 23:22:26;;;;;;;5.85;2.80;;;;;;;5.60;68.09;99462.81;31332142;27;125321;-66
2024/01/01 23:37:26;;;;;;;6.57;2.28;;;;;;;5.58;67.92;99446.31;31345415;27;96794;-66
2024/01/01 23:52:26;;;;;;;6.05;2.53;;;;;;;5.59;68.09;99445.31;31350781;27;126799;-65
